City Of Vicksburg — WDC2660 — position and weather

sailwx.info

Track history (hours):
 
Tides and Currents Weather Stations Pressure Air Temp Water Temp Dewpoint Dewpoint Depression Visibility Wind Speed Wind Dir Waves Ship Positions

City Of Vicksburg

Owner: Kirby Inland Marine LP, Houston, TX. More information available from US FCC via Universal Licensing System and Coast Guard Vessel Documentation Center.

Last reported at 2017-Feb-16 23:34 UTC. Time now 2017-Feb-20 22:29 UTC.
Position N 32°36' W 091°08'.

Length 405 m; draft 2.9 m.

Type: . MMSI: 366996120.

Date/timePositionNaut miles runAvg speedWind from/ knotsBaromVisibWave heightAir tempDewpointWater temp
2017-Feb-16 23:34N 32°36' W 091°08'4 3.8
2017-Feb-16 22:33N 32°32' W 091°06'4 4.2
2017-Feb-16 21:33N 32°28' W 091°06'4 4.3
2017-Feb-16 20:33N 32°26' W 091°02'4 3.6
2017-Feb-16 19:33N 32°23' W 091°00'3 3.2
2017-Feb-16 18:33N 32°21' W 090°57'1 0.8
2017-Feb-16 17:33N 32°21' W 090°56'0 0.0
2017-Feb-16 16:33N 32°21' W 090°56'0 0.0
2017-Feb-16 15:33N 32°21' W 090°56'0 0.1
2017-Feb-16 14:33N 32°21' W 090°56'3 2.9
2017-Feb-16 13:33N 32°18' W 090°55'4 4.1
2017-Feb-16 12:34N 32°15' W 090°59'3 3.4
2017-Feb-16 11:33N 32°12' W 090°59'4 4.2
2017-Feb-16 10:34N 32°08' W 091°01'5 4.5
2017-Feb-16 09:33N 32°08' W 091°06'5 3.8
2017-Feb-16 08:10N 32°03' W 091°03'2 3.6
2017-Feb-16 07:34N 32°01' W 091°04'  
2017-Feb-13 04:04N 31°58' W 091°11'611.0
2017-Feb-13 03:31N 32°00' W 091°05'8 8.1
2017-Feb-13 02:33N 32°08' W 091°05'8 7.5
2017-Feb-13 01:33N 32°14' W 090°59'8 7.6
2017-Feb-13 00:33N 32°21' W 090°56'1010.1
2017-Feb-12 23:33N 32°27' W 091°06'1111.1
2017-Feb-12 22:33N 32°38' W 091°09'  
Track history (hours):
 
Tides and Currents Weather Stations Pressure Air Temp Water Temp Dewpoint Dewpoint Depression Visibility Wind Speed Wind Dir Waves Ship Positions

City Of Vicksburg

Owner: Kirby Inland Marine LP, Houston, TX. More information available from US FCC via Universal Licensing System and Coast Guard Vessel Documentation Center.

Last reported at 2017-Feb-16 23:34 UTC. Time now 2017-Feb-20 22:29 UTC.
Position N 32°36' W 091°08'.

Length 405 m; draft 2.9 m.

Type: . MMSI: 366996120.

Date/timePositionNaut miles runAvg speedWind from/ knotsBaromVisibWave heightAir tempDewpointWater temp
2017-Feb-16 23:34N 32°36' W 091°08'4 3.8
2017-Feb-16 22:33N 32°32' W 091°06'4 4.2
2017-Feb-16 21:33N 32°28' W 091°06'4 4.3
2017-Feb-16 20:33N 32°26' W 091°02'4 3.6
2017-Feb-16 19:33N 32°23' W 091°00'3 3.2
2017-Feb-16 18:33N 32°21' W 090°57'1 0.8
2017-Feb-16 17:33N 32°21' W 090°56'0 0.0
2017-Feb-16 16:33N 32°21' W 090°56'0 0.0
2017-Feb-16 15:33N 32°21' W 090°56'0 0.1
2017-Feb-16 14:33N 32°21' W 090°56'3 2.9
2017-Feb-16 13:33N 32°18' W 090°55'4 4.1
2017-Feb-16 12:34N 32°15' W 090°59'3 3.4
2017-Feb-16 11:33N 32°12' W 090°59'4 4.2
2017-Feb-16 10:34N 32°08' W 091°01'5 4.5
2017-Feb-16 09:33N 32°08' W 091°06'5 3.8
2017-Feb-16 08:10N 32°03' W 091°03'2 3.6
2017-Feb-16 07:34N 32°01' W 091°04'  
2017-Feb-13 04:04N 31°58' W 091°11'611.0
2017-Feb-13 03:31N 32°00' W 091°05'8 8.1
2017-Feb-13 02:33N 32°08' W 091°05'8 7.5
2017-Feb-13 01:33N 32°14' W 090°59'8 7.6
2017-Feb-13 00:33N 32°21' W 090°56'1010.1
2017-Feb-12 23:33N 32°27' W 091°06'1111.1
2017-Feb-12 22:33N 32°38' W 091°09'  

Dump ship's entire track history